Time;durP1;ratioP1;P1;durP2;ratioP2;P2;SDS_P1;SDS_P2;PMS_P1;PMS_P2;Temp;Humidity;BMP_temperature;BMP_pressure;BME280_temperature;BME280_humidity;BME280_pressure;Samples;Min_cycle;Max_cycle;Signal;HPM_P1;HPM_P2
2024/02/13 00:00:32;;;;;;;10.17;6.13;;;4.70;99.90;;;;;;5072709;28;20158;-69
2024/02/13 00:02:58;;;;;;;7.80;6.00;;;4.60;99.90;;;;;;5072815;28;20404;-69
2024/02/13 00:05:26;;;;;;;12.57;5.90;;;4.60;99.90;;;;;;5072896;28;20166;-69
2024/02/13 00:07:52;;;;;;;8.90;6.93;;;4.50;99.90;;;;;;5072756;28;20434;-69
2024/02/13 00:10:21;;;;;;;9.97;6.73;;;4.40;99.90;;;;;;5072309;28;20452;-69
2024/02/13 00:12:46;;;;;;;12.20;6.90;;;4.30;99.90;;;;;;5071387;28;20169;-70
2024/02/13 00:15:18;;;;;;;9.57;6.37;;;4.30;99.90;;;;;;5072751;28;20408;-69
2024/02/13 00:17:44;;;;;;;9.80;5.83;;;4.20;99.90;;;;;;5072618;28;20183;-69
2024/02/13 00:20:10;;;;;;;9.67;6.30;;;4.10;99.90;;;;;;5072298;28;20918;-70
2024/02/13 00:22:36;;;;;;;12.33;5.87;;;4.10;99.90;;;;;;5072490;28;20396;-69
2024/02/13 00:25:01;;;;;;;6.97;5.27;;;4.00;99.90;;;;;;5072397;28;20412;-69
2024/02/13 00:27:32;;;;;;;8.87;6.30;;;4.00;99.90;;;;;;5072409;28;20190;-69
2024/02/13 00:29:58;;;;;;;13.17;6.90;;;4.00;99.90;;;;;;5070793;28;20449;-69
2024/02/13 00:32:23;;;;;;;9.13;7.93;;;3.90;99.90;;;;;;5071088;28;20414;-69
2024/02/13 00:34:49;;;;;;;11.17;7.30;;;3.90;99.90;;;;;;5072292;28;20566;-69
2024/02/13 00:37:15;;;;;;;9.10;5.80;;;3.90;99.90;;;;;;5072237;28;20178;-69
2024/02/13 00:39:40;;;;;;;9.63;7.10;;;3.80;99.90;;;;;;5071912;28;20162;-69
2024/02/13 00:42:06;;;;;;;10.87;6.97;;;3.80;99.90;;;;;;5072136;28;20172;-70
2024/02/13 00:44:31;;;;;;;10.40;6.90;;;3.70;99.90;;;;;;5070951;28;20196;-69
2024/02/13 00:46:57;;;;;;;11.03;6.13;;;3.70;99.90;;;;;;5071262;28;20632;-69
2024/02/13 00:49:22;;;;;;;10.50;7.43;;;3.70;99.90;;;;;;5071824;28;20697;-69
2024/02/13 00:51:48;;;;;;;8.00;6.40;;;3.60;99.90;;;;;;5071813;28;20255;-69
2024/02/13 00:54:16;;;;;;;15.40;6.00;;;3.60;99.90;;;;;;5071965;28;20185;-70
2024/02/13 00:56:42;;;;;;;11.47;6.60;;;3.60;99.90;;;;;;5071935;28;20213;-69
2024/02/13 00:59:08;;;;;;;12.00;7.70;;;3.50;99.90;;;;;;5070508;28;20777;-70
2024/02/13 01:01:34;;;;;;;12.63;7.00;;;3.50;99.90;;;;;;5071947;28;20975;-69
2024/02/13 01:04:00;;;;;;;8.40;5.70;;;3.50;99.90;;;;;;5071924;28;20504;-69
2024/02/13 01:06:27;;;;;;;14.60;7.90;;;3.50;99.90;;;;;;5070523;28;20432;-69
2024/02/13 01:08:53;;;;;;;6.90;6.20;;;3.40;99.90;;;;;;5071836;28;20445;-69
2024/02/13 01:11:18;;;;;;;13.70;6.50;;;3.40;99.90;;;;;;5071783;28;20444;-69
2024/02/13 01:13:44;;;;;;;10.10;6.60;;;3.30;99.90;;;;;;5071803;28;20702;-69
2024/02/13 01:16:09;;;;;;;10.87;6.40;;;3.30;99.90;;;;;;5070449;28;20190;-69
2024/02/13 01:18:35;;;;;;;7.70;5.60;;;3.30;99.90;;;;;;5071747;28;20166;-69
2024/02/13 01:21:01;;;;;;;11.40;6.80;;;3.30;99.90;;;;;;5071421;28;20249;-69
2024/02/13 01:23:27;;;;;;;10.93;6.60;;;3.30;99.90;;;;;;5071644;28;20283;-69
2024/02/13 01:25:52;;;;;;;13.10;5.27;;;3.30;99.90;;;;;;5071790;28;20205;-69
2024/02/13 01:28:19;;;;;;;11.10;5.90;;;3.30;99.90;;;;;;5071702;28;20903;-69
2024/02/13 01:30:45;;;;;;;9.00;5.33;;;3.30;99.90;;;;;;5071346;28;20227;-69
2024/02/13 01:33:10;;;;;;;17.73;6.83;;;3.30;99.90;;;;;;5071586;28;20826;-69
2024/02/13 01:35:42;;;;;;;12.17;6.87;;;3.30;99.90;;;;;;5071539;28;20209;-69
2024/02/13 01:38:09;;;;;;;10.90;5.53;;;3.40;99.90;;;;;;5070209;28;20261;-69
2024/02/13 01:40:35;;;;;;;14.67;6.63;;;3.40;99.90;;;;;;5071233;28;20453;-69
2024/02/13 01:43:02;;;;;;;9.97;6.07;;;3.40;99.90;;;;;;5071479;28;20454;-69
2024/02/13 01:45:28;;;;;;;9.23;6.20;;;3.40;99.90;;;;;;5070092;28;20487;-69
2024/02/13 01:47:54;;;;;;;19.53;7.03;;;3.50;99.90;;;;;;5071429;28;20963;-69
2024/02/13 01:50:20;;;;;;;9.90;6.10;;;3.40;99.90;;;;;;5069902;28;20708;-69
2024/02/13 01:52:48;;;;;;;11.87;6.50;;;3.40;99.90;;;;;;5071353;28;20425;-69
2024/02/13 01:55:16;;;;;;;9.30;6.07;;;3.50;99.90;;;;;;5071372;28;20158;-69
2024/02/13 01:57:43;;;;;;;11.67;5.80;;;3.50;99.90;;;;;;5071831;28;20416;-69
2024/02/13 02:00:13;;;;;;;15.40;6.37;;;3.50;99.90;;;;;;5075037;28;20408;-69
2024/02/13 02:02:42;;;;;;;11.53;7.13;;;3.50;99.90;;;;;;5073926;28;20644;-69
2024/02/13 02:05:11;;;;;;;9.10;6.67;;;3.50;99.90;;;;;;5074998;28;20404;-69
2024/02/13 02:07:40;;;;;;;12.53;6.83;;;3.50;99.90;;;;;;5075229;28;20468;-69
2024/02/13 02:10:07;;;;;;;13.47;6.27;;;3.50;99.90;;;;;;5074707;28;20448;-69
2024/02/13 02:12:34;;;;;;;12.13;6.23;;;3.60;99.90;;;;;;5074902;28;20891;-69
2024/02/13 02:15:00;;;;;;;11.53;5.67;;;3.50;99.90;;;;;;5074924;28;20400;-69
2024/02/13 02:17:25;;;;;;;15.80;6.67;;;3.50;99.90;;;;;;5074740;28;20424;-69
2024/02/13 02:19:51;;;;;;;12.17;5.50;;;3.50;99.90;;;;;;5074591;28;20174;-69
2024/02/13 02:22:17;;;;;;;15.60;6.87;;;3.50;99.90;;;;;;5073557;28;20167;-69
2024/02/13 02:24:42;;;;;;;9.07;5.77;;;3.40;99.90;;;;;;5074856;28;20637;-69
2024/02/13 02:27:08;;;;;;;14.90;6.87;;;3.40;99.90;;;;;;5074720;28;20433;-69
2024/02/13 02:29:36;;;;;;;7.20;5.30;;;3.30;99.90;;;;;;5074456;28;20166;-69
2024/02/13 02:32:03;;;;;;;15.97;6.30;;;3.40;99.90;;;;;;5073222;28;20206;-69
2024/02/13 02:34:28;;;;;;;24.03;13.73;;;3.40;99.90;;;;;;5074437;28;20396;-69
2024/02/13 02:36:54;;;;;;;8.93;6.23;;;3.40;99.90;;;;;;5073182;28;20448;-69
2024/02/13 02:39:20;;;;;;;12.50;6.00;;;3.50;99.90;;;;;;5074288;28;20524;-69
2024/02/13 02:41:49;;;;;;;17.60;6.10;;;3.60;99.90;;;;;;5074476;28;20202;-69
2024/02/13 02:44:14;;;;;;;10.10;6.60;;;3.70;99.90;;;;;;5073131;28;20261;-70
2024/02/13 02:46:40;;;;;;;14.50;7.10;;;3.80;99.90;;;;;;5072927;28;20533;-70
2024/02/13 02:49:06;;;;;;;11.37;7.13;;;3.90;99.90;;;;;;5074081;28;20173;-69
2024/02/13 02:51:32;;;;;;;10.57;6.67;;;3.90;99.90;;;;;;5074231;28;20205;-70
2024/02/13 02:53:57;;;;;;;11.50;7.70;;;4.00;99.90;;;;;;5072948;28;20183;-70
2024/02/13 02:56:24;;;;;;;13.37;7.67;;;4.00;99.90;;;;;;5074253;28;20960;-70
2024/02/13 02:58:49;;;;;;;14.80;6.83;;;4.00;99.90;;;;;;5073879;28;20171;-69
2024/02/13 03:01:16;;;;;;;9.43;5.63;;;4.00;99.90;;;;;;5074057;28;20453;-70
2024/02/13 03:03:41;;;;;;;10.83;6.50;;;3.80;99.90;;;;;;5074068;28;20188;-71
2024/02/13 03:06:07;;;;;;;16.07;5.93;;;3.70;99.90;;;;;;5073961;28;20896;-70
2024/02/13 03:08:33;;;;;;;13.67;6.57;;;3.70;99.90;;;;;;5074051;28;20176;-69
2024/02/13 03:10:59;;;;;;;10.30;6.33;;;3.60;99.90;;;;;;5073063;28;20501;-69
2024/02/13 03:13:25;;;;;;;9.80;6.50;;;3.60;99.90;;;;;;5073854;28;20583;-69
2024/02/13 03:15:51;;;;;;;11.57;7.03;;;3.50;99.90;;;;;;5072492;28;20931;-70
2024/02/13 03:18:17;;;;;;;13.80;6.87;;;3.40;99.90;;;;;;5073862;28;20461;-69
2024/02/13 03:20:46;;;;;;;14.63;7.00;;;3.50;99.90;;;;;;5073553;28;20170;-70
2024/02/13 03:23:12;;;;;;;19.40;7.13;;;3.50;99.90;;;;;;5073673;28;20409;-69
2024/02/13 03:25:38;;;;;;;10.67;6.87;;;3.50;99.90;;;;;;5073552;28;20407;-69
2024/02/13 03:28:05;;;;;;;18.57;8.93;;;3.50;99.90;;;;;;5072324;28;20199;-69
2024/02/13 03:30:30;;;;;;;13.20;7.23;;;3.50;99.90;;;;;;5073145;28;20444;-69
2024/02/13 03:32:56;;;;;;;12.30;7.73;;;3.50;99.90;;;;;;5072148;28;20417;-70
2024/02/13 03:35:21;;;;;;;11.20;6.57;;;3.60;99.90;;;;;;5073365;28;20162;-69
2024/02/13 03:37:47;;;;;;;10.57;6.67;;;3.60;99.90;;;;;;5073434;28;20190;-70
2024/02/13 03:40:15;;;;;;;15.30;6.70;;;3.60;99.90;;;;;;5073090;28;20198;-69
2024/02/13 03:42:45;;;;;;;7.03;5.73;;;3.70;99.90;;;;;;5073249;28;20660;-70
2024/02/13 03:45:10;;;;;;;12.67;6.83;;;3.70;99.90;;;;;;5073299;28;20781;-69
2024/02/13 03:47:36;;;;;;;10.87;6.20;;;3.70;99.90;;;;;;5073064;28;20424;-70
2024/02/13 03:50:02;;;;;;;9.10;5.63;;;3.70;99.90;;;;;;5072790;28;20180;-69
2024/02/13 03:52:29;;;;;;;12.37;7.87;;;3.70;99.90;;;;;;5071735;28;20832;-69
2024/02/13 03:54:54;;;;;;;14.23;7.17;;;3.70;99.90;;;;;;5073132;28;20417;-69
2024/02/13 03:57:20;;;;;;;19.10;6.57;;;3.70;99.90;;;;;;5072905;28;20443;-70
2024/02/13 03:59:45;;;;;;;112.77;54.10;;;3.70;99.90;;;;;;5073209;28;20645;-69
2024/02/13 04:02:11;;;;;;;27.93;13.03;;;3.80;99.90;;;;;;5072895;28;20249;-70
2024/02/13 04:04:37;;;;;;;11.37;7.43;;;3.80;99.90;;;;;;5072940;28;20166;-69
2024/02/13 04:07:04;;;;;;;14.53;6.30;;;3.80;99.90;;;;;;5073059;28;20190;-69
2024/02/13 04:09:30;;;;;;;11.40;6.90;;;3.80;99.90;;;;;;5071282;28;20179;-70
2024/02/13 04:11:55;;;;;;;9.70;6.97;;;3.80;99.90;;;;;;5073143;28;20526;-69
2024/02/13 04:14:21;;;;;;;12.03;6.60;;;3.90;99.90;;;;;;5072634;28;20181;-70
2024/02/13 04:16:47;;;;;;;12.87;5.40;;;3.90;99.90;;;;;;5072588;28;20193;-70
2024/02/13 04:19:12;;;;;;;9.80;6.33;;;3.90;99.90;;;;;;5072419;28;20545;-70
2024/02/13 04:21:38;;;;;;;14.60;5.40;;;3.90;99.90;;;;;;5072434;28;20175;-69
2024/02/13 04:24:06;;;;;;;9.80;6.90;;;3.80;99.90;;;;;;5072564;28;20193;-69
2024/02/13 04:26:32;;;;;;;10.17;6.10;;;3.70;99.90;;;;;;5072279;28;20218;-69
2024/02/13 04:28:58;;;;;;;10.63;5.70;;;3.70;99.90;;;;;;5072175;28;20816;-70
2024/02/13 04:31:23;;;;;;;10.83;4.80;;;3.60;99.90;;;;;;5072179;28;20539;-70
2024/02/13 04:33:49;;;;;;;8.37;5.73;;;3.60;99.90;;;;;;5072397;28;20188;-70
2024/02/13 04:36:14;;;;;;;7.70;5.83;;;3.50;99.90;;;;;;5072231;28;20186;-69
2024/02/13 04:38:40;;;;;;;8.30;5.43;;;3.50;99.90;;;;;;5072212;28;20200;-69
2024/02/13 04:41:05;;;;;;;9.07;6.30;;;3.50;99.90;;;;;;5070670;28;20269;-69
2024/02/13 04:43:32;;;;;;;13.90;5.77;;;3.40;99.90;;;;;;5070827;28;20174;-69
2024/02/13 04:45:59;;;;;;;9.33;6.53;;;3.40;99.90;;;;;;5072062;28;20744;-70
2024/02/13 04:48:24;;;;;;;7.40;5.23;;;3.30;99.90;;;;;;5072143;28;20436;-69
2024/02/13 04:50:50;;;;;;;12.33;5.37;;;3.30;99.90;;;;;;5071782;28;20922;-70
2024/02/13 04:53:20;;;;;;;11.27;5.20;;;3.30;99.90;;;;;;5070711;28;20273;-69
2024/02/13 04:55:46;;;;;;;7.90;5.93;;;3.20;99.90;;;;;;5071972;28;20178;-70
2024/02/13 04:58:17;;;;;;;12.80;6.97;;;3.10;99.90;;;;;;5072056;28;20473;-70
2024/02/13 05:00:51;;;;;;;8.40;6.30;;;3.10;99.90;;;;;;5070537;28;20177;-70
2024/02/13 05:03:25;;;;;;;14.53;6.40;;;3.10;99.90;;;;;;5071940;28;20400;-69
2024/02/13 05:08:36;;;;;;;9.70;6.00;;;3.10;99.90;;;;;;5071963;28;20435;-70
2024/02/13 05:11:02;;;;;;;7.93;4.83;;;3.10;99.90;;;;;;5071765;28;20455;-69
2024/02/13 05:13:31;;;;;;;7.37;5.77;;;3.20;99.90;;;;;;5071829;28;20741;-70
2024/02/13 05:15:58;;;;;;;12.53;4.83;;;3.20;99.90;;;;;;5071742;28;20416;-70
2024/02/13 05:18:23;;;;;;;6.73;3.27;;;3.20;99.90;;;;;;5072264;28;20491;-70
2024/02/13 05:20:50;;;;;;;7.20;3.97;;;3.20;99.90;;;;;;5070136;28;20897;-70
2024/02/13 05:23:15;;;;;;;6.43;3.93;;;3.10;99.90;;;;;;5071716;28;20179;-69
2024/02/13 05:25:41;;;;;;;3.87;3.37;;;3.10;99.90;;;;;;5070220;28;20519;-70
2024/02/13 05:28:07;;;;;;;7.77;4.00;;;3.10;99.90;;;;;;5071653;28;20404;-69
2024/02/13 05:30:32;;;;;;;5.87;3.37;;;3.10;99.90;;;;;;5071288;28;20291;-69
2024/02/13 05:32:58;;;;;;;3.60;3.30;;;3.10;99.90;;;;;;5072702;28;20699;-69
2024/02/13 05:35:24;;;;;;;4.83;3.27;;;3.10;99.90;;;;;;5074379;28;20564;-69
2024/02/13 05:37:51;;;;;;;6.33;4.07;;;3.10;99.90;;;;;;5075850;28;20457;-69
2024/02/13 05:40:17;;;;;;;7.80;3.13;;;3.10;99.90;;;;;;5075440;28;20455;-70
2024/02/13 05:42:44;;;;;;;5.80;3.70;;;3.20;99.90;;;;;;5075583;28;20408;-69
2024/02/13 05:45:10;;;;;;;4.30;2.53;;;3.20;99.90;;;;;;5075569;28;20249;-70
2024/02/13 05:47:37;;;;;;;6.57;3.73;;;3.20;99.90;;;;;;5075449;28;20966;-70
2024/02/13 05:50:07;;;;;;;4.57;3.83;;;3.10;99.90;;;;;;5075056;28;20410;-70
2024/02/13 05:52:37;;;;;;;4.20;3.10;;;3.00;99.90;;;;;;5075301;28;21005;-70
2024/02/13 05:55:03;;;;;;;4.73;3.17;;;3.00;99.90;;;;;;5075408;28;20392;-69
2024/02/13 05:57:31;;;;;;;4.40;3.07;;;2.90;99.90;;;;;;5075278;28;20415;-69
2024/02/13 05:59:57;;;;;;;6.83;3.33;;;3.00;99.90;;;;;;5075040;28;20403;-69
2024/02/13 06:02:22;;;;;;;13.23;3.80;;;3.00;99.90;;;;;;5075248;28;20392;-69
2024/02/13 06:04:49;;;;;;;4.13;3.47;;;3.00;99.90;;;;;;5075179;28;20404;-69
2024/02/13 06:07:14;;;;;;;6.47;3.37;;;2.90;99.90;;;;;;5075142;28;20186;-69
2024/02/13 06:09:40;;;;;;;3.63;2.50;;;2.90;99.90;;;;;;5074856;28;20405;-69
2024/02/13 06:12:09;;;;;;;9.30;3.27;;;2.90;99.90;;;;;;5074958;28;20236;-69
2024/02/13 06:14:34;;;;;;;3.50;3.20;;;2.80;99.90;;;;;;5074878;28;20300;-69
2024/02/13 06:17:00;;;;;;;3.97;3.40;;;2.80;99.90;;;;;;5074778;28;20507;-69
2024/02/13 06:19:25;;;;;;;5.23;2.90;;;2.80;99.90;;;;;;5074722;28;20170;-70
2024/02/13 06:21:51;;;;;;;4.87;2.40;;;2.80;99.90;;;;;;5075055;28;20170;-69
2024/02/13 06:24:16;;;;;;;6.60;3.27;;;2.80;99.90;;;;;;5074981;28;20187;-71
2024/02/13 06:26:43;;;;;;;3.70;2.93;;;2.80;99.90;;;;;;5074992;28;20235;-70
2024/02/13 06:29:08;;;;;;;3.30;2.37;;;2.70;99.90;;;;;;5074476;28;20174;-69
2024/02/13 06:31:34;;;;;;;2.70;2.20;;;2.70;99.90;;;;;;5074572;28;20444;-70
2024/02/13 06:33:59;;;;;;;3.70;2.43;;;2.70;99.90;;;;;;5074681;28;20303;-69
2024/02/13 06:36:26;;;;;;;2.23;1.83;;;2.80;99.90;;;;;;5073286;28;20669;-69
2024/02/13 06:38:52;;;;;;;2.87;1.97;;;3.00;99.90;;;;;;5073003;28;20166;-70
2024/02/13 06:41:17;;;;;;;2.87;1.90;;;3.50;99.90;;;;;;5074504;28;20436;-70
2024/02/13 06:43:44;;;;;;;6.33;3.00;;;4.00;99.90;;;;;;5074117;28;20447;-69
2024/02/13 06:46:10;;;;;;;3.37;2.87;;;4.50;99.90;;;;;;5073510;28;20190;-69
2024/02/13 06:48:35;;;;;;;3.90;3.50;;;5.00;99.90;;;;;;5074392;28;20404;-70
2024/02/13 06:51:01;;;;;;;5.83;2.80;;;5.40;99.90;;;;;;5074053;28;20200;-69
2024/02/13 06:53:27;;;;;;;4.57;3.30;;;5.60;99.90;;;;;;5072929;28;20616;-69
2024/02/13 06:55:53;;;;;;;3.87;3.10;;;5.90;99.90;;;;;;5074185;28;20186;-69
2024/02/13 06:58:18;;;;;;;3.63;3.33;;;6.10;99.90;;;;;;5074037;28;20424;-70
2024/02/13 07:00:44;;;;;;;3.50;2.40;;;6.40;99.90;;;;;;5073779;28;20216;-70
2024/02/13 07:03:10;;;;;;;2.17;2.00;;;6.60;99.90;;;;;;5074259;28;20177;-69
2024/02/13 07:05:37;;;;;;;2.30;1.70;;;6.90;99.90;;;;;;5074065;28;20217;-70
2024/02/13 07:08:03;;;;;;;5.07;2.43;;;7.10;99.90;;;;;;5073865;28;20585;-70
2024/02/13 07:10:28;;;;;;;3.00;2.17;;;7.20;99.90;;;;;;5073602;28;20539;-69
2024/02/13 07:12:56;;;;;;;2.83;1.67;;;6.90;99.90;;;;;;5073707;28;20457;-69
2024/02/13 07:15:22;;;;;;;2.90;2.00;;;6.80;99.90;;;;;;5073631;28;20155;-69
2024/02/13 07:17:49;;;;;;;5.70;1.83;;;6.60;99.90;;;;;;5073653;28;20775;-69
2024/02/13 07:20:14;;;;;;;2.33;1.83;;;6.20;99.90;;;;;;5073404;28;20727;-69
2024/02/13 07:22:40;;;;;;;3.80;1.70;;;5.90;99.90;;;;;;5072182;28;20455;-69
2024/02/13 07:25:08;;;;;;;3.30;1.23;;;5.80;99.90;;;;;;5073604;28;20170;-69
2024/02/13 07:27:35;;;;;;;2.43;1.70;;;5.70;99.90;;;;;;5073304;28;20684;-69
2024/02/13 07:30:01;;;;;;;2.13;2.00;;;5.60;99.90;;;;;;5073020;28;20411;-69
2024/02/13 07:32:27;;;;;;;2.30;1.33;;;5.60;99.90;;;;;;5073340;28;20487;-69
2024/02/13 07:34:53;;;;;;;2.17;1.70;;;5.50;99.90;;;;;;5073349;28;20488;-69
2024/02/13 07:37:19;;;;;;;2.00;1.73;;;5.50;99.90;;;;;;5073214;28;20174;-69
2024/02/13 07:39:45;;;;;;;4.93;1.87;;;5.50;99.90;;;;;;5073015;28;20401;-69
2024/02/13 07:42:10;;;;;;;1.93;1.77;;;5.50;99.90;;;;;;5073140;28;20530;-69
2024/02/13 07:44:36;;;;;;;1.53;1.13;;;5.50;99.90;;;;;;5073063;28;20170;-69
2024/02/13 07:47:01;;;;;;;1.97;1.50;;;5.60;99.90;;;;;;5072994;28;20186;-69
2024/02/13 07:49:27;;;;;;;2.20;1.67;;;5.70;99.90;;;;;;5071782;28;20637;-69
2024/02/13 07:51:53;;;;;;;5.10;1.73;;;5.80;99.90;;;;;;5072891;28;20209;-66
2024/02/13 07:54:21;;;;;;;2.30;1.20;;;5.80;99.90;;;;;;5073160;28;20167;-66
2024/02/13 07:56:46;;;;;;;2.33;1.60;;;5.90;99.90;;;;;;5072506;28;20443;-66
2024/02/13 07:59:13;;;;;;;2.03;1.47;;;6.00;99.90;;;;;;5072742;28;20931;-66
2024/02/13 08:01:39;;;;;;;7.43;1.83;;;6.10;99.90;;;;;;5073019;28;20166;-66
2024/02/13 08:04:05;;;;;;;2.20;1.50;;;6.20;99.90;;;;;;5072888;28;20404;-66
2024/02/13 08:06:31;;;;;;;4.90;1.67;;;6.50;99.90;;;;;;5073012;28;20182;-67
2024/02/13 08:08:56;;;;;;;2.50;1.43;;;6.80;99.90;;;;;;5072578;28;20430;-67
2024/02/13 08:11:22;;;;;;;3.03;1.60;;;7.00;99.90;;;;;;5071461;28;20444;-66
2024/02/13 08:13:48;;;;;;;5.00;1.67;;;7.10;99.90;;;;;;5072664;28;20249;-66
2024/02/13 08:16:14;;;;;;;1.37;1.20;;;7.50;99.90;;;;;;5072652;28;20182;-66
2024/02/13 08:18:42;;;;;;;2.07;1.87;;;8.30;99.90;;;;;;5072642;28;20241;-66
2024/02/13 08:21:08;;;;;;;4.07;1.33;;;9.70;99.90;;;;;;5072330;28;20254;-67
2024/02/13 08:23:33;;;;;;;1.30;1.20;;;11.50;99.90;;;;;;5072578;28;20840;-67
2024/02/13 08:25:59;;;;;;;4.50;1.50;;;13.50;99.90;;;;;;5072856;28;20194;-67
2024/02/13 08:28:25;;;;;;;1.97;1.17;;;15.10;99.90;;;;;;5072428;28;20698;-67
2024/02/13 08:30:50;;;;;;;1.63;1.00;;;16.60;99.90;;;;;;5072057;28;20448;-67
2024/02/13 08:33:17;;;;;;;2.80;1.30;;;17.70;82.40;;;;;;5072466;28;20220;-67
2024/02/13 08:35:42;;;;;;;1.53;1.40;;;17.40;58.50;;;;;;5072287;28;20265;-67
2024/02/13 08:38:08;;;;;;;3.03;1.53;;;17.20;58.80;;;;;;5072276;28;20491;-67
2024/02/13 08:40:35;;;;;;;1.63;1.30;;;17.00;57.00;;;;;;5072040;28;20593;-67
2024/02/13 08:43:00;;;;;;;2.83;1.30;;;17.20;56.60;;;;;;5070952;28;20508;-67
2024/02/13 08:45:26;;;;;;;2.83;1.10;;;18.20;57.30;;;;;;5072221;28;20491;-67
2024/02/13 08:47:52;;;;;;;1.73;1.27;;;19.40;57.70;;;;;;5072130;28;20185;-70
2024/02/13 08:50:17;;;;;;;2.03;1.63;;;20.10;49.70;;;;;;5071822;28;20251;-67
2024/02/13 08:52:43;;;;;;;2.07;1.73;;;21.10;47.50;;;;;;5072040;28;20178;-67
2024/02/13 08:55:09;;;;;;;1.50;1.30;;;21.60;44.60;;;;;;5071967;28;20166;-67
2024/02/13 08:57:35;;;;;;;2.23;1.70;;;22.60;43.90;;;;;;5071962;28;20182;-67
2024/02/13 09:00:04;;;;;;;1.67;1.57;;;23.50;42.90;;;;;;5071846;28;20169;-67
2024/02/13 09:02:29;;;;;;;2.13;1.50;;;24.20;40.70;;;;;;5072284;28;20439;-67
2024/02/13 09:04:55;;;;;;;1.60;1.47;;;24.70;39.00;;;;;;5072263;28;20440;-67
2024/02/13 09:07:20;;;;;;;1.93;1.40;;;25.40;39.40;;;;;;5071089;28;20224;-68
2024/02/13 09:09:46;;;;;;;3.83;1.47;;;25.50;36.40;;;;;;5071620;28;20694;-67
2024/02/13 09:12:11;;;;;;;1.70;1.57;;;25.40;35.50;;;;;;5071728;28;20545;-67
2024/02/13 09:14:37;;;;;;;2.40;1.47;;;25.30;34.20;;;;;;5071900;28;20169;-67
2024/02/13 09:17:04;;;;;;;2.43;1.63;;;25.60;34.30;;;;;;5071738;28;20186;-67
2024/02/13 09:19:31;;;;;;;1.80;1.43;;;25.60;34.00;;;;;;5072570;28;20166;-67
2024/02/13 09:21:56;;;;;;;2.60;2.23;;;25.70;33.80;;;;;;5071715;28;20427;-65
2024/02/13 09:24:23;;;;;;;1.73;1.63;;;25.50;33.10;;;;;;5071785;28;20800;-65
2024/02/13 09:26:51;;;;;;;3.10;1.70;;;24.40;32.80;;;;;;5071983;28;20673;-65
2024/02/13 09:29:17;;;;;;;3.13;1.60;;;23.20;33.10;;;;;;5071504;28;20748;-65
2024/02/13 09:31:43;;;;;;;1.63;1.53;;;22.90;34.30;;;;;;5071649;28;20486;-65
2024/02/13 09:34:09;;;;;;;1.77;1.60;;;22.20;34.60;;;;;;5071640;28;20636;-65
2024/02/13 09:36:37;;;;;;;3.67;1.60;;;23.00;36.20;;;;;;5071445;28;20186;-65
2024/02/13 09:39:03;;;;;;;4.70;2.20;;;24.00;36.40;;;;;;5071203;28;20211;-65
2024/02/13 09:41:29;;;;;;;1.67;1.57;;;24.80;35.50;;;;;;5071550;28;20420;-65
2024/02/13 09:43:57;;;;;;;3.87;2.10;;;25.60;35.10;;;;;;5071532;28;20404;-66
2024/02/13 09:46:24;;;;;;;1.93;1.73;;;26.20;34.00;;;;;;5071517;28;20182;-66
2024/02/13 09:48:54;;;;;;;3.00;1.63;;;26.50;33.30;;;;;;5071544;28;20507;-67
2024/02/13 09:51:21;;;;;;;4.33;3.07;;;26.70;32.40;;;;;;5071469;28;20448;-66
2024/02/13 09:53:47;;;;;;;3.57;1.20;;;27.00;32.10;;;;;;5071336;28;20412;-66
2024/02/13 09:56:14;;;;;;;1.37;1.20;;;27.60;31.80;;;;;;5071379;28;20907;-66
2024/02/13 09:58:46;;;;;;;2.27;1.37;;;28.10;31.20;;;;;;5071421;28;20877;-66
2024/02/13 10:01:12;;;;;;;1.40;1.30;;;28.40;30.60;;;;;;5071173;28;20396;-66
2024/02/13 10:03:38;;;;;;;1.13;0.90;;;28.70;30.00;;;;;;5071338;28;20393;-67
2024/02/13 10:06:10;;;;;;;1.77;1.23;;;27.80;28.80;;;;;;5071246;28;20218;-66
2024/02/13 10:08:37;;;;;;;1.93;1.23;;;27.30;29.10;;;;;;5071364;28;20897;-66
2024/02/13 10:11:05;;;;;;;1.30;0.97;;;27.50;29.60;;;;;;5070996;28;20460;-66
2024/02/13 10:13:35;;;;;;;2.50;1.10;;;26.10;29.10;;;;;;5071313;28;20764;-65
2024/02/13 10:16:01;;;;;;;2.57;1.83;;;24.50;29.70;;;;;;5071168;28;20428;-65
2024/02/13 10:18:27;;;;;;;2.40;1.60;;;22.70;30.50;;;;;;5071361;28;20502;-65
2024/02/13 10:20:54;;;;;;;2.23;1.43;;;21.50;32.00;;;;;;5074622;28;20566;-65
2024/02/13 10:23:23;;;;;;;3.60;1.60;;;20.30;33.30;;;;;;5074781;28;20473;-65
2024/02/13 10:25:48;;;;;;;2.03;1.60;;;18.90;34.50;;;;;;5074784;28;20792;-65
2024/02/13 10:28:16;;;;;;;2.23;1.50;;;18.10;35.80;;;;;;5074793;28;20417;-65
2024/02/13 10:30:49;;;;;;;1.43;1.30;;;17.50;37.00;;;;;;5074462;28;20262;-65
2024/02/13 10:33:15;;;;;;;2.90;1.47;;;17.80;39.20;;;;;;5074647;28;20412;-65
2024/02/13 10:35:41;;;;;;;2.07;1.20;;;18.90;40.00;;;;;;5074610;28;20408;-65
2024/02/13 10:38:09;;;;;;;1.90;1.17;;;19.40;39.80;;;;;;5074549;28;20404;-65
2024/02/13 10:40:39;;;;;;;1.60;1.30;;;21.60;40.20;;;;;;5074386;28;20257;-65
2024/02/13 10:43:08;;;;;;;1.77;1.43;;;24.00;39.50;;;;;;5074570;28;20404;-66
2024/02/13 10:45:36;;;;;;;1.60;1.40;;;26.20;36.30;;;;;;5074555;28;20852;-66
2024/02/13 10:48:27;;;;;;;1.47;1.37;;;26.70;33.40;;;;;;5074416;28;20416;-66
2024/02/13 10:50:54;;;;;;;1.87;1.47;;;27.60;31.70;;;;;;5072778;28;20455;-66
2024/02/13 10:53:23;;;;;;;1.70;1.40;;;27.20;29.70;;;;;;5074219;28;20431;-66
2024/02/13 10:55:53;;;;;;;1.57;1.20;;;25.40;28.70;;;;;;5074216;28;20530;-66
2024/02/13 10:58:21;;;;;;;2.70;1.50;;;23.30;29.70;;;;;;5074148;28;20460;-65
2024/02/13 11:00:50;;;;;;;2.13;1.60;;;22.20;30.40;;;;;;5073914;28;20424;-65
2024/02/13 11:03:17;;;;;;;2.83;1.30;;;22.10;32.30;;;;;;5074107;28;20408;-65
2024/02/13 11:05:42;;;;;;;2.43;1.50;;;22.50;32.80;;;;;;5074105;28;20436;-65
2024/02/13 11:08:08;;;;;;;2.00;1.20;;;22.00;32.30;;;;;;5073958;28;20407;-65
2024/02/13 11:10:36;;;;;;;3.53;1.50;;;21.70;32.30;;;;;;5073874;28;20193;-65
2024/02/13 11:13:05;;;;;;;3.93;1.60;;;21.50;32.90;;;;;;5073916;28;20162;-66
2024/02/13 11:15:32;;;;;;;2.80;1.40;;;22.80;34.50;;;;;;5073912;28;20482;-66
2024/02/13 11:18:04;;;;;;;2.33;1.50;;;25.30;35.20;;;;;;5073935;28;20408;-66
2024/02/13 11:20:30;;;;;;;5.53;1.77;;;26.40;31.70;;;;;;5073631;28;20404;-66
2024/02/13 11:23:02;;;;;;;3.03;1.50;;;26.30;29.70;;;;;;5073803;28;20412;-65
2024/02/13 11:25:30;;;;;;;1.80;1.63;;;25.80;28.90;;;;;;5073694;28;20174;-65
2024/02/13 11:28:05;;;;;;;2.10;1.50;;;25.10;29.00;;;;;;5073681;28;20409;-65
2024/02/13 11:30:32;;;;;;;1.40;1.30;;;24.70;29.20;;;;;;5072661;28;20866;-65
2024/02/13 11:33:01;;;;;;;2.30;1.60;;;24.70;30.10;;;;;;5073541;28;20408;-66
2024/02/13 11:35:58;;;;;;;6.93;1.80;;;25.40;29.80;;;;;;5073457;28;20449;-66
2024/02/13 11:38:27;;;;;;;1.43;1.30;;;26.50;29.80;;;;;;5073513;28;20423;-66
2024/02/13 11:40:55;;;;;;;2.80;1.40;;;26.80;29.10;;;;;;5073226;28;20418;-66
2024/02/13 11:43:28;;;;;;;2.10;1.47;;;27.90;29.70;;;;;;5073506;28;20504;-66
2024/02/13 11:45:57;;;;;;;2.87;1.73;;;29.30;28.10;;;;;;5073321;28;20425;-66
2024/02/13 11:48:31;;;;;;;4.70;2.00;;;30.20;27.10;;;;;;5073183;28;20405;-66
2024/02/13 11:50:57;;;;;;;5.53;1.13;;;30.80;27.20;;;;;;5073318;28;20953;-66
2024/02/13 11:53:23;;;;;;;4.00;1.17;;;29.50;25.70;;;;;;5073025;28;20456;-66
2024/02/13 11:55:49;;;;;;;1.30;1.10;;;28.40;25.90;;;;;;5073168;28;20186;-66
2024/02/13 11:58:20;;;;;;;2.80;1.10;;;27.40;26.40;;;;;;5073040;28;20445;-66
2024/02/13 12:01:03;;;;;;;1.60;0.90;;;26.70;26.80;;;;;;5072876;28;20542;-65
2024/02/13 12:03:30;;;;;;;1.70;1.50;;;25.00;26.90;;;;;;5072919;28;20412;-65
2024/02/13 12:05:56;;;;;;;2.13;1.50;;;23.80;27.60;;;;;;5072813;28;20463;-65
2024/02/13 12:08:24;;;;;;;1.57;1.47;;;24.00;28.70;;;;;;5072821;28;20491;-65
2024/02/13 12:10:51;;;;;;;3.87;1.73;;;24.20;28.60;;;;;;5072453;28;20486;-66
2024/02/13 12:13:19;;;;;;;1.60;1.50;;;24.40;28.80;;;;;;5072647;28;20404;-65
2024/02/13 12:15:47;;;;;;;2.10;1.60;;;23.30;28.00;;;;;;5072648;28;20505;-65
2024/02/13 12:18:12;;;;;;;2.00;1.43;;;22.60;28.60;;;;;;5072713;28;20401;-65
2024/02/13 12:20:38;;;;;;;2.63;1.40;;;22.90;29.40;;;;;;5072308;28;20462;-65
2024/02/13 12:23:06;;;;;;;2.37;1.40;;;24.20;30.40;;;;;;5072590;28;20641;-65
2024/02/13 12:25:35;;;;;;;1.73;1.47;;;25.30;29.70;;;;;;5072477;28;20174;-66
2024/02/13 12:28:05;;;;;;;2.30;1.80;;;27.60;30.10;;;;;;5072422;28;20842;-66
2024/02/13 12:30:34;;;;;;;1.60;1.50;;;30.00;28.60;;;;;;5072144;28;20543;-66
2024/02/13 12:33:07;;;;;;;1.80;1.70;;;31.30;26.10;;;;;;5072331;28;20415;-66
2024/02/13 12:35:33;;;;;;;2.17;1.80;;;29.50;24.00;;;;;;5072284;28;20404;-66
2024/02/13 12:38:19;;;;;;;3.33;1.10;;;28.20;24.80;;;;;;5072354;28;20436;-65
2024/02/13 12:40:45;;;;;;;4.47;1.83;;;26.00;24.60;;;;;;5072247;28;20715;-66
2024/02/13 12:43:15;;;;;;;2.23;1.57;;;25.50;25.80;;;;;;5072117;28;20396;-66
2024/02/13 12:45:41;;;;;;;2.37;1.67;;;25.80;27.00;;;;;;5072523;28;20416;-66
2024/02/13 12:48:09;;;;;;;2.10;1.47;;;27.40;28.20;;;;;;5072164;28;20411;-65
2024/02/13 12:50:35;;;;;;;1.70;1.60;;;28.70;27.00;;;;;;5071726;28;20459;-66